THY7TQ LTFM-EDDN
Flight info
| Callsign | THY7TQ |
|---|---|
| Flight time | 2h 23m |
| Altitude | 36000 |
| Route | TUDBU Q26 ETUBA DCT ELDET DCT BACAM DCT SODGO DCT DIDIX/N0442F380 DCT STEIN DCT LNZ/N0399F300 DCT SUBEN T161 AKINI Z109 UPALA UPALA1T |
| Aircraft | B738/M-SDE2E3FGHIRWY/LB1 |
Departure
| Time | 2026-05-01 08:35 |
|---|---|
| Airport | İstanbul Airport (LTFM) |
Arrival
| Time | 2026-05-01 10:59 |
|---|---|
| Airport | Nuremberg Airport (EDDN) |
| Time | Latitude | Longitude | Altitude | Speed | Heading |
|---|---|---|---|---|---|
| 2026-05-01 07:59 | 41.26642 | 28.73432 | 333 ft | 0 kts | 71° |
| 2026-05-01 08:18 | 41.26638 | 28.73416 | 330 ft | 4 kts | 77° |
| 2026-05-01 08:18 | 41.26648 | 28.73353 | 328 ft | 4 kts | 143° |
| 2026-05-01 08:19 | 41.26685 | 28.73340 | 330 ft | 2 kts | 185° |
| 2026-05-01 08:31 | 41.26680 | 28.73339 | 330 ft | 5 kts | 185° |
| 2026-05-01 08:31 | 41.26638 | 28.73335 | 329 ft | 6 kts | 184° |
| 2026-05-01 08:32 | 41.26605 | 28.73305 | 331 ft | 6 kts | 244° |
| 2026-05-01 08:32 | 41.26600 | 28.73258 | 333 ft | 3 kts | 269° |
| 2026-05-01 08:32 | 41.26600 | 28.73227 | 333 ft | 3 kts | 269° |
| 2026-05-01 08:32 | 41.26599 | 28.73197 | 333 ft | 3 kts | 269° |
| 2026-05-01 08:33 | 41.26598 | 28.73120 | 329 ft | 11 kts | 269° |
| 2026-05-01 08:33 | 41.26597 | 28.73023 | 333 ft | 10 kts | 269° |
| 2026-05-01 08:33 | 41.26596 | 28.72930 | 333 ft | 10 kts | 269° |
| 2026-05-01 08:33 | 41.26595 | 28.72838 | 330 ft | 10 kts | 269° |
| 2026-05-01 08:34 | 41.26594 | 28.72735 | 333 ft | 15 kts | 269° |
| 2026-05-01 08:34 | 41.26591 | 28.72574 | 333 ft | 18 kts | 269° |
| 2026-05-01 08:34 | 41.26645 | 28.72513 | 329 ft | 10 kts | 5° |
| 2026-05-01 08:34 | 41.26704 | 28.72513 | 329 ft | 19 kts | 359° |
| 2026-05-01 08:35 | 41.27166 | 28.72506 | 329 ft | 111 kts | 359° |
| 2026-05-01 08:35 | 41.28176 | 28.72491 | 487 ft | 175 kts | 0° |
| 2026-05-01 08:35 | 41.29541 | 28.72446 | 836 ft | 207 kts | 1° |
| 2026-05-01 08:35 | 41.30890 | 28.72401 | 966 ft | 180 kts | 4° |
| 2026-05-01 08:36 | 41.32058 | 28.72426 | 1066 ft | 159 kts | 5° |
| 2026-05-01 08:36 | 41.33114 | 28.72451 | 1086 ft | 147 kts | 5° |
| 2026-05-01 08:36 | 41.34144 | 28.72473 | 835 ft | 153 kts | 6° |
| 2026-05-01 08:36 | 41.35397 | 28.72479 | 1258 ft | 197 kts | 2° |
| 2026-05-01 08:37 | 41.36757 | 28.72486 | 2784 ft | 192 kts | 4° |
| 2026-05-01 08:37 | 41.38167 | 28.72469 | 3647 ft | 216 kts | 353° |
| 2026-05-01 08:37 | 41.39659 | 28.71714 | 4246 ft | 240 kts | 338° |
| 2026-05-01 08:37 | 41.41170 | 28.70716 | 5134 ft | 244 kts | 338° |
| 2026-05-01 08:38 | 41.42720 | 28.69709 | 6010 ft | 251 kts | 338° |
| 2026-05-01 08:38 | 41.44304 | 28.68685 | 6922 ft | 253 kts | 338° |
| 2026-05-01 08:38 | 41.45907 | 28.67653 | 7756 ft | 259 kts | 337° |
| 2026-05-01 08:38 | 41.47559 | 28.66588 | 8477 ft | 269 kts | 336° |
| 2026-05-01 08:39 | 41.49264 | 28.65493 | 9280 ft | 276 kts | 335° |
| 2026-05-01 08:39 | 41.51011 | 28.64373 | 10108 ft | 282 kts | 334° |
| 2026-05-01 08:39 | 41.52833 | 28.63204 | 10561 ft | 301 kts | 334° |
| 2026-05-01 08:39 | 41.54794 | 28.61946 | 10830 ft | 324 kts | 334° |
| 2026-05-01 08:40 | 41.58645 | 28.58732 | 12433 ft | 328 kts | 311° |
| 2026-05-01 08:40 | 41.60169 | 28.56452 | 13291 ft | 332 kts | 309° |
| 2026-05-01 08:40 | 41.61696 | 28.54142 | 14197 ft | 331 kts | 309° |
| 2026-05-01 08:41 | 41.63243 | 28.51836 | 14989 ft | 333 kts | 309° |
| 2026-05-01 08:41 | 41.64799 | 28.49542 | 15665 ft | 338 kts | 309° |
| 2026-05-01 08:41 | 41.66400 | 28.47186 | 16310 ft | 344 kts | 308° |
| 2026-05-01 08:41 | 41.67744 | 28.44567 | 17120 ft | 339 kts | 294° |
| 2026-05-01 08:42 | 41.68712 | 28.41680 | 17880 ft | 342 kts | 291° |
| 2026-05-01 08:42 | 41.69650 | 28.38724 | 18462 ft | 349 kts | 291° |
| 2026-05-01 08:42 | 41.70598 | 28.35720 | 19093 ft | 351 kts | 291° |
| 2026-05-01 08:42 | 41.71545 | 28.32747 | 19677 ft | 354 kts | 291° |
| 2026-05-01 08:43 | 41.72537 | 28.29664 | 20274 ft | 358 kts | 290° |
| 2026-05-01 08:43 | 41.73532 | 28.26592 | 20877 ft | 361 kts | 290° |
| 2026-05-01 08:43 | 41.74535 | 28.23503 | 21513 ft | 363 kts | 290° |
| 2026-05-01 08:43 | 41.75547 | 28.20392 | 22096 ft | 366 kts | 290° |
| 2026-05-01 08:44 | 41.76567 | 28.17255 | 22663 ft | 369 kts | 290° |
| 2026-05-01 08:44 | 41.77598 | 28.14082 | 23233 ft | 372 kts | 290° |
| 2026-05-01 08:44 | 41.78619 | 28.10932 | 23790 ft | 375 kts | 289° |
| 2026-05-01 08:44 | 41.79751 | 28.07768 | 24231 ft | 382 kts | 298° |
| 2026-05-01 08:45 | 41.81325 | 28.04857 | 24675 ft | 387 kts | 303° |
| 2026-05-01 08:45 | 41.82974 | 28.01997 | 25106 ft | 390 kts | 303° |
| 2026-05-01 08:45 | 41.84646 | 27.99108 | 25550 ft | 393 kts | 303° |
| 2026-05-01 08:45 | 41.86318 | 27.96192 | 25971 ft | 395 kts | 303° |
| 2026-05-01 08:46 | 41.87991 | 27.93243 | 26393 ft | 398 kts | 303° |
| 2026-05-01 08:46 | 41.89664 | 27.90274 | 26796 ft | 401 kts | 303° |
| 2026-05-01 08:46 | 41.91350 | 27.87267 | 27198 ft | 403 kts | 303° |
| 2026-05-01 08:46 | 41.93039 | 27.84249 | 27590 ft | 406 kts | 303° |
| 2026-05-01 08:47 | 41.94740 | 27.81210 | 27986 ft | 409 kts | 303° |
| 2026-05-01 08:47 | 41.95895 | 27.79143 | 28250 ft | 410 kts | 303° |
| 2026-05-01 08:47 | 41.97677 | 27.76124 | 28628 ft | 415 kts | 307° |
| 2026-05-01 08:47 | 41.99623 | 27.73306 | 28999 ft | 419 kts | 310° |
| 2026-05-01 08:48 | 42.01694 | 27.70519 | 29344 ft | 422 kts | 311° |
| 2026-05-01 08:48 | 42.03794 | 27.67750 | 29687 ft | 425 kts | 311° |
| 2026-05-01 08:48 | 42.05935 | 27.64919 | 30034 ft | 427 kts | 311° |
| 2026-05-01 08:48 | 42.08017 | 27.62134 | 30357 ft | 429 kts | 311° |
| 2026-05-01 08:49 | 42.10133 | 27.59272 | 30614 ft | 431 kts | 311° |
| 2026-05-01 08:49 | 42.12238 | 27.56400 | 30901 ft | 433 kts | 311° |
| 2026-05-01 08:49 | 42.14353 | 27.53497 | 31200 ft | 434 kts | 311° |
| 2026-05-01 08:49 | 42.16468 | 27.50583 | 31593 ft | 433 kts | 311° |
| 2026-05-01 08:50 | 42.18566 | 27.47689 | 32001 ft | 431 kts | 311° |
| 2026-05-01 08:50 | 42.20664 | 27.44791 | 32331 ft | 431 kts | 311° |
| 2026-05-01 08:50 | 42.22760 | 27.41891 | 32630 ft | 432 kts | 311° |
| 2026-05-01 08:50 | 42.24857 | 27.38987 | 32946 ft | 432 kts | 311° |
| 2026-05-01 08:51 | 42.26956 | 27.36079 | 33308 ft | 432 kts | 311° |
| 2026-05-01 08:51 | 42.29048 | 27.33178 | 33646 ft | 431 kts | 311° |
| 2026-05-01 08:51 | 42.31142 | 27.30271 | 33937 ft | 432 kts | 311° |
| 2026-05-01 08:51 | 42.33237 | 27.27360 | 34249 ft | 432 kts | 311° |
| 2026-05-01 08:52 | 42.35330 | 27.24450 | 34530 ft | 431 kts | 311° |
| 2026-05-01 08:52 | 42.37414 | 27.21548 | 34806 ft | 430 kts | 311° |
| 2026-05-01 08:52 | 42.39501 | 27.18639 | 35050 ft | 430 kts | 311° |
| 2026-05-01 08:52 | 42.41587 | 27.15729 | 35307 ft | 430 kts | 311° |
| 2026-05-01 08:53 | 42.43663 | 27.12829 | 35573 ft | 429 kts | 311° |
| 2026-05-01 08:53 | 42.45744 | 27.09921 | 35829 ft | 429 kts | 311° |
| 2026-05-01 08:53 | 42.47816 | 27.07021 | 36052 ft | 429 kts | 311° |
| 2026-05-01 08:53 | 42.49894 | 27.04109 | 36271 ft | 429 kts | 311° |
| 2026-05-01 08:54 | 42.51969 | 27.01200 | 36512 ft | 429 kts | 311° |
| 2026-05-01 08:54 | 42.54041 | 26.98291 | 36751 ft | 429 kts | 311° |
| 2026-05-01 08:54 | 42.56111 | 26.95382 | 36967 ft | 429 kts | 311° |
| 2026-05-01 08:54 | 42.58180 | 26.92471 | 37189 ft | 429 kts | 311° |
| 2026-05-01 08:55 | 42.60247 | 26.89561 | 37414 ft | 429 kts | 311° |
| 2026-05-01 08:55 | 42.62317 | 26.86644 | 37619 ft | 429 kts | 311° |
| 2026-05-01 08:55 | 42.64384 | 26.83727 | 37832 ft | 429 kts | 311° |
| 2026-05-01 08:55 | 42.66449 | 26.80810 | 38038 ft | 428 kts | 311° |
| 2026-05-01 08:56 | 42.68513 | 26.77892 | 38233 ft | 429 kts | 311° |
| 2026-05-01 08:56 | 42.70586 | 26.74957 | 38247 ft | 432 kts | 311° |
| 2026-05-01 08:56 | 42.74744 | 26.69062 | 38260 ft | 431 kts | 311° |
| 2026-05-01 08:57 | 42.78872 | 26.63201 | 38267 ft | 428 kts | 311° |
| 2026-05-01 08:57 | 42.82804 | 26.57178 | 38276 ft | 423 kts | 305° |
| 2026-05-01 08:58 | 42.86285 | 26.50746 | 38278 ft | 421 kts | 304° |
| 2026-05-01 08:58 | 42.89732 | 26.44295 | 38289 ft | 421 kts | 304° |
| 2026-05-01 08:59 | 42.93195 | 26.37841 | 38294 ft | 422 kts | 304° |
| 2026-05-01 08:59 | 42.96678 | 26.31369 | 38295 ft | 424 kts | 304° |
| 2026-05-01 09:00 | 43.00158 | 26.24899 | 38306 ft | 426 kts | 304° |
| 2026-05-01 09:00 | 43.03668 | 26.18360 | 38309 ft | 428 kts | 304° |
| 2026-05-01 09:01 | 43.07196 | 26.11775 | 38325 ft | 430 kts | 304° |
| 2026-05-01 09:01 | 43.10737 | 26.05149 | 38336 ft | 432 kts | 304° |
| 2026-05-01 09:02 | 43.14280 | 25.98504 | 38337 ft | 433 kts | 304° |
| 2026-05-01 09:02 | 43.17822 | 25.91845 | 38335 ft | 433 kts | 304° |
| 2026-05-01 09:03 | 43.21364 | 25.85172 | 38340 ft | 432 kts | 304° |
| 2026-05-01 09:03 | 43.24892 | 25.78510 | 38338 ft | 431 kts | 304° |
| 2026-05-01 09:04 | 43.28406 | 25.71860 | 38341 ft | 430 kts | 304° |
| 2026-05-01 09:04 | 43.31910 | 25.65215 | 38345 ft | 429 kts | 304° |
| 2026-05-01 09:05 | 43.35402 | 25.58575 | 38338 ft | 428 kts | 304° |
| 2026-05-01 09:05 | 43.38884 | 25.51940 | 38336 ft | 428 kts | 304° |
| 2026-05-01 09:06 | 43.42360 | 25.45302 | 38332 ft | 427 kts | 304° |
| 2026-05-01 09:06 | 43.45829 | 25.38663 | 38331 ft | 428 kts | 304° |
| 2026-05-01 09:07 | 43.49297 | 25.32009 | 38333 ft | 428 kts | 304° |
| 2026-05-01 09:07 | 43.52768 | 25.25336 | 38339 ft | 429 kts | 304° |
| 2026-05-01 09:08 | 43.56245 | 25.18637 | 38332 ft | 430 kts | 304° |
| 2026-05-01 09:08 | 43.59722 | 25.11921 | 38337 ft | 431 kts | 304° |
| 2026-05-01 09:09 | 43.63212 | 25.05165 | 38339 ft | 432 kts | 304° |
| 2026-05-01 09:09 | 43.66694 | 24.98408 | 38334 ft | 433 kts | 304° |
| 2026-05-01 09:10 | 43.70184 | 24.91621 | 38339 ft | 433 kts | 304° |
| 2026-05-01 09:10 | 43.73648 | 24.84868 | 38338 ft | 434 kts | 304° |
| 2026-05-01 09:11 | 43.77134 | 24.78056 | 38342 ft | 434 kts | 304° |
| 2026-05-01 09:11 | 43.80620 | 24.71230 | 38343 ft | 434 kts | 304° |
| 2026-05-01 09:12 | 43.84094 | 24.64411 | 38342 ft | 433 kts | 304° |
| 2026-05-01 09:12 | 43.87562 | 24.57588 | 38343 ft | 433 kts | 304° |
| 2026-05-01 09:13 | 43.91022 | 24.50764 | 38342 ft | 432 kts | 304° |
| 2026-05-01 09:13 | 43.94470 | 24.43948 | 38342 ft | 431 kts | 304° |
| 2026-05-01 09:14 | 43.97911 | 24.37129 | 38339 ft | 431 kts | 304° |
| 2026-05-01 09:14 | 44.01344 | 24.30312 | 38340 ft | 431 kts | 304° |
| 2026-05-01 09:15 | 44.04773 | 24.23486 | 38342 ft | 430 kts | 305° |
| 2026-05-01 09:15 | 44.08197 | 24.16654 | 38338 ft | 430 kts | 305° |
| 2026-05-01 09:16 | 44.11612 | 24.09822 | 38341 ft | 430 kts | 305° |
| 2026-05-01 09:17 | 44.16734 | 23.99548 | 38346 ft | 431 kts | 305° |
| 2026-05-01 09:17 | 44.21861 | 23.89226 | 38346 ft | 432 kts | 305° |
| 2026-05-01 09:18 | 44.26985 | 23.78875 | 38345 ft | 433 kts | 305° |
| 2026-05-01 09:19 | 44.32714 | 23.69155 | 38343 ft | 433 kts | 313° |
| 2026-05-01 09:20 | 44.38815 | 23.59895 | 38337 ft | 434 kts | 313° |
| 2026-05-01 09:21 | 44.46934 | 23.47352 | 38328 ft | 435 kts | 312° |
| 2026-05-01 09:21 | 44.53006 | 23.37898 | 38327 ft | 435 kts | 312° |
| 2026-05-01 09:22 | 44.61095 | 23.25240 | 38318 ft | 436 kts | 313° |
| 2026-05-01 09:23 | 44.67148 | 23.15735 | 38319 ft | 435 kts | 313° |
| 2026-05-01 09:24 | 44.73193 | 23.06208 | 38319 ft | 435 kts | 313° |
| 2026-05-01 09:25 | 44.81235 | 22.93482 | 38320 ft | 435 kts | 313° |
| 2026-05-01 09:26 | 44.87245 | 22.83929 | 38317 ft | 435 kts | 312° |
| 2026-05-01 09:26 | 44.92994 | 22.74020 | 38308 ft | 435 kts | 310° |
| 2026-05-01 09:27 | 44.98678 | 22.64013 | 38304 ft | 435 kts | 310° |
| 2026-05-01 09:28 | 45.02483 | 22.57350 | 38310 ft | 436 kts | 310° |
| 2026-05-01 09:28 | 45.06296 | 22.50676 | 38305 ft | 436 kts | 310° |
| 2026-05-01 09:29 | 45.12016 | 22.40639 | 38305 ft | 437 kts | 310° |
| 2026-05-01 09:30 | 45.17747 | 22.30545 | 38299 ft | 439 kts | 310° |
| 2026-05-01 09:30 | 45.23474 | 22.20419 | 38303 ft | 439 kts | 310° |
| 2026-05-01 09:31 | 45.27292 | 22.13650 | 38303 ft | 439 kts | 310° |
| 2026-05-01 09:32 | 45.32366 | 22.04629 | 38308 ft | 439 kts | 310° |
| 2026-05-01 09:32 | 45.38072 | 21.94448 | 38310 ft | 439 kts | 311° |
| 2026-05-01 09:33 | 45.41872 | 21.87648 | 38318 ft | 439 kts | 311° |
| 2026-05-01 09:34 | 45.47568 | 21.77424 | 38322 ft | 439 kts | 311° |
| 2026-05-01 09:34 | 45.53255 | 21.67180 | 38324 ft | 440 kts | 311° |
| 2026-05-01 09:35 | 45.58940 | 21.56902 | 38333 ft | 440 kts | 311° |
| 2026-05-01 09:36 | 45.62697 | 21.50089 | 38339 ft | 440 kts | 311° |
| 2026-05-01 09:36 | 45.66475 | 21.43220 | 38344 ft | 440 kts | 311° |
| 2026-05-01 09:37 | 45.70253 | 21.36335 | 38344 ft | 440 kts | 311° |
| 2026-05-01 09:37 | 45.75911 | 21.25993 | 38350 ft | 440 kts | 311° |
| 2026-05-01 09:38 | 45.81567 | 21.15615 | 38348 ft | 440 kts | 311° |
| 2026-05-01 09:39 | 45.87217 | 21.05212 | 38338 ft | 441 kts | 311° |
| 2026-05-01 09:39 | 45.90622 | 20.97880 | 38348 ft | 444 kts | 302° |
| 2026-05-01 09:40 | 45.94989 | 20.86102 | 38340 ft | 445 kts | 301° |
| 2026-05-01 09:41 | 45.97893 | 20.78233 | 38337 ft | 445 kts | 302° |
| 2026-05-01 09:41 | 46.02280 | 20.66447 | 38342 ft | 446 kts | 302° |
| 2026-05-01 09:42 | 46.05207 | 20.58588 | 38340 ft | 446 kts | 302° |
| 2026-05-01 09:43 | 46.11046 | 20.42842 | 38345 ft | 446 kts | 302° |
| 2026-05-01 09:43 | 46.13957 | 20.34956 | 38344 ft | 446 kts | 302° |
| 2026-05-01 09:44 | 46.18313 | 20.23110 | 38352 ft | 446 kts | 302° |
| 2026-05-01 09:45 | 46.21209 | 20.15204 | 38355 ft | 446 kts | 302° |
| 2026-05-01 09:45 | 46.25553 | 20.03305 | 38360 ft | 446 kts | 302° |
| 2026-05-01 09:46 | 46.28443 | 19.95357 | 38357 ft | 446 kts | 302° |
| 2026-05-01 09:46 | 46.31327 | 19.87405 | 38354 ft | 447 kts | 302° |
| 2026-05-01 09:47 | 46.34204 | 19.79447 | 38360 ft | 447 kts | 302° |
| 2026-05-01 09:47 | 46.37080 | 19.71469 | 38361 ft | 447 kts | 302° |
| 2026-05-01 09:48 | 46.39950 | 19.63482 | 38360 ft | 447 kts | 302° |
| 2026-05-01 09:48 | 46.42817 | 19.55482 | 38360 ft | 447 kts | 302° |
| 2026-05-01 09:49 | 46.45676 | 19.47477 | 38363 ft | 447 kts | 302° |
| 2026-05-01 09:49 | 46.48533 | 19.39455 | 38361 ft | 448 kts | 302° |
| 2026-05-01 09:50 | 46.51388 | 19.31416 | 38372 ft | 448 kts | 302° |
| 2026-05-01 09:50 | 46.54237 | 19.23367 | 38365 ft | 448 kts | 302° |
| 2026-05-01 09:51 | 46.57080 | 19.15312 | 38368 ft | 448 kts | 302° |
| 2026-05-01 09:51 | 46.59922 | 19.07237 | 38367 ft | 449 kts | 302° |
| 2026-05-01 09:52 | 46.62759 | 18.99149 | 38369 ft | 449 kts | 302° |
| 2026-05-01 09:52 | 46.65574 | 18.91100 | 38373 ft | 449 kts | 302° |
| 2026-05-01 09:53 | 46.68407 | 18.82977 | 38365 ft | 450 kts | 302° |
| 2026-05-01 09:53 | 46.71235 | 18.74839 | 38368 ft | 450 kts | 302° |
| 2026-05-01 09:54 | 46.74061 | 18.66684 | 38372 ft | 451 kts | 302° |
| 2026-05-01 09:54 | 46.76885 | 18.58510 | 38379 ft | 451 kts | 302° |
| 2026-05-01 09:55 | 46.79703 | 18.50325 | 38371 ft | 452 kts | 302° |
| 2026-05-01 09:55 | 46.82515 | 18.42135 | 38370 ft | 452 kts | 302° |
| 2026-05-01 09:56 | 46.85327 | 18.33919 | 38369 ft | 452 kts | 302° |
| 2026-05-01 09:56 | 46.88138 | 18.25678 | 38369 ft | 452 kts | 302° |
| 2026-05-01 09:57 | 46.90938 | 18.17445 | 38367 ft | 452 kts | 302° |
| 2026-05-01 09:57 | 46.93734 | 18.09196 | 38367 ft | 452 kts | 302° |
| 2026-05-01 09:58 | 46.96502 | 18.01006 | 38368 ft | 452 kts | 302° |
| 2026-05-01 09:58 | 46.99280 | 17.92757 | 38375 ft | 451 kts | 302° |
| 2026-05-01 09:59 | 47.02051 | 17.84507 | 38371 ft | 451 kts | 302° |
| 2026-05-01 09:59 | 47.04810 | 17.76265 | 38374 ft | 451 kts | 302° |
| 2026-05-01 10:00 | 47.07561 | 17.68019 | 38385 ft | 450 kts | 302° |
| 2026-05-01 10:00 | 47.10309 | 17.59757 | 38381 ft | 450 kts | 302° |
| 2026-05-01 10:01 | 47.13042 | 17.51514 | 38386 ft | 449 kts | 302° |
| 2026-05-01 10:01 | 47.15764 | 17.43276 | 38392 ft | 448 kts | 302° |
| 2026-05-01 10:02 | 47.18472 | 17.35057 | 38391 ft | 447 kts | 302° |
| 2026-05-01 10:02 | 47.21171 | 17.26837 | 38390 ft | 446 kts | 302° |
| 2026-05-01 10:03 | 47.23858 | 17.18628 | 38395 ft | 445 kts | 302° |
| 2026-05-01 10:03 | 47.26534 | 17.10431 | 38378 ft | 444 kts | 302° |
| 2026-05-01 10:04 | 47.29204 | 17.02224 | 38394 ft | 445 kts | 302° |
| 2026-05-01 10:04 | 47.31874 | 16.93991 | 38403 ft | 446 kts | 302° |
| 2026-05-01 10:05 | 47.34547 | 16.85718 | 38394 ft | 447 kts | 302° |
| 2026-05-01 10:05 | 47.37212 | 16.77441 | 38398 ft | 447 kts | 302° |
| 2026-05-01 10:06 | 47.39877 | 16.69140 | 38395 ft | 447 kts | 302° |
| 2026-05-01 10:06 | 47.42531 | 16.60850 | 38390 ft | 446 kts | 302° |
| 2026-05-01 10:07 | 47.45238 | 16.52623 | 38390 ft | 444 kts | 303° |
| 2026-05-01 10:07 | 47.47993 | 16.44478 | 38398 ft | 443 kts | 303° |
| 2026-05-01 10:08 | 47.52107 | 16.32245 | 38392 ft | 442 kts | 303° |
| 2026-05-01 10:09 | 47.54805 | 16.24153 | 38393 ft | 441 kts | 303° |
| 2026-05-01 10:09 | 47.57508 | 16.16008 | 38387 ft | 440 kts | 303° |
| 2026-05-01 10:10 | 47.60200 | 16.07874 | 38382 ft | 440 kts | 302° |
| 2026-05-01 10:10 | 47.64220 | 15.95677 | 38408 ft | 439 kts | 302° |
| 2026-05-01 10:11 | 47.66896 | 15.87529 | 38383 ft | 439 kts | 302° |
| 2026-05-01 10:11 | 47.69565 | 15.79372 | 38386 ft | 439 kts | 302° |
| 2026-05-01 10:12 | 47.71778 | 15.72591 | 38399 ft | 439 kts | 302° |
| 2026-05-01 10:13 | 47.76202 | 15.58974 | 38396 ft | 438 kts | 302° |
| 2026-05-01 10:13 | 47.78846 | 15.50808 | 38395 ft | 438 kts | 302° |
| 2026-05-01 10:14 | 47.82805 | 15.38528 | 38401 ft | 440 kts | 302° |
| 2026-05-01 10:14 | 47.85450 | 15.30289 | 38415 ft | 442 kts | 302° |
| 2026-05-01 10:15 | 47.88081 | 15.22068 | 38413 ft | 444 kts | 302° |
| 2026-05-01 10:15 | 47.90730 | 15.13763 | 38411 ft | 445 kts | 301° |
| 2026-05-01 10:16 | 47.93385 | 15.05407 | 38384 ft | 445 kts | 301° |
| 2026-05-01 10:17 | 47.97345 | 14.92895 | 38403 ft | 444 kts | 301° |
| 2026-05-01 10:17 | 48.01275 | 14.80417 | 38403 ft | 442 kts | 301° |
| 2026-05-01 10:18 | 48.05186 | 14.67938 | 38404 ft | 441 kts | 301° |
| 2026-05-01 10:19 | 48.07778 | 14.59635 | 38410 ft | 440 kts | 301° |
| 2026-05-01 10:19 | 48.10358 | 14.51341 | 38417 ft | 440 kts | 301° |
| 2026-05-01 10:20 | 48.13780 | 14.40300 | 38415 ft | 439 kts | 301° |
| 2026-05-01 10:20 | 48.16346 | 14.31988 | 38436 ft | 439 kts | 300° |
| 2026-05-01 10:21 | 48.20183 | 14.19509 | 38433 ft | 440 kts | 300° |
| 2026-05-01 10:22 | 48.23982 | 14.06969 | 38423 ft | 442 kts | 298° |
| 2026-05-01 10:23 | 48.27462 | 13.94071 | 38426 ft | 446 kts | 297° |
| 2026-05-01 10:23 | 48.30917 | 13.81157 | 38408 ft | 442 kts | 297° |
| 2026-05-01 10:24 | 48.35510 | 13.64081 | 38412 ft | 439 kts | 297° |
| 2026-05-01 10:25 | 48.40045 | 13.47102 | 38418 ft | 438 kts | 297° |
| 2026-05-01 10:26 | 48.42308 | 13.38586 | 38410 ft | 438 kts | 297° |
| 2026-05-01 10:27 | 48.46826 | 13.21582 | 38412 ft | 439 kts | 297° |
| 2026-05-01 10:28 | 48.50234 | 13.08724 | 38418 ft | 441 kts | 297° |
| 2026-05-01 10:28 | 48.52449 | 13.00307 | 38386 ft | 418 kts | 297° |
| 2026-05-01 10:28 | 48.53499 | 12.96303 | 38397 ft | 404 kts | 297° |
| 2026-05-01 10:29 | 48.55503 | 12.88626 | 38266 ft | 388 kts | 297° |
| 2026-05-01 10:29 | 48.56495 | 12.84817 | 37521 ft | 393 kts | 297° |
| 2026-05-01 10:30 | 48.58608 | 12.76744 | 35171 ft | 431 kts | 297° |
| 2026-05-01 10:30 | 48.60783 | 12.68301 | 34212 ft | 430 kts | 297° |
| 2026-05-01 10:31 | 48.62920 | 12.59947 | 33357 ft | 423 kts | 297° |
| 2026-05-01 10:31 | 48.65026 | 12.51712 | 32558 ft | 416 kts | 297° |
| 2026-05-01 10:32 | 48.67097 | 12.43600 | 31807 ft | 410 kts | 297° |
| 2026-05-01 10:32 | 48.68119 | 12.39590 | 31428 ft | 407 kts | 297° |
| 2026-05-01 10:32 | 48.70136 | 12.31657 | 30688 ft | 402 kts | 297° |
| 2026-05-01 10:33 | 48.72128 | 12.23791 | 29869 ft | 397 kts | 297° |
| 2026-05-01 10:33 | 48.74078 | 12.16061 | 29086 ft | 389 kts | 297° |
| 2026-05-01 10:34 | 48.75172 | 12.12369 | 28678 ft | 380 kts | 305° |
| 2026-05-01 10:34 | 48.76629 | 12.09051 | 28054 ft | 376 kts | 314° |
| 2026-05-01 10:34 | 48.78241 | 12.05961 | 27675 ft | 372 kts | 315° |
| 2026-05-01 10:35 | 48.81468 | 11.99884 | 26884 ft | 367 kts | 315° |
| 2026-05-01 10:35 | 48.83059 | 11.96870 | 26518 ft | 365 kts | 315° |
| 2026-05-01 10:35 | 48.84631 | 11.93872 | 26152 ft | 362 kts | 314° |
| 2026-05-01 10:35 | 48.86194 | 11.90875 | 25790 ft | 359 kts | 314° |
| 2026-05-01 10:36 | 48.89271 | 11.84946 | 25082 ft | 355 kts | 314° |
| 2026-05-01 10:36 | 48.90791 | 11.82008 | 24725 ft | 353 kts | 314° |
| 2026-05-01 10:36 | 48.92301 | 11.79084 | 24382 ft | 351 kts | 314° |
| 2026-05-01 10:37 | 48.93807 | 11.76166 | 24030 ft | 350 kts | 314° |
| 2026-05-01 10:37 | 48.96792 | 11.70371 | 23221 ft | 346 kts | 313° |
| 2026-05-01 10:37 | 48.98272 | 11.67492 | 22866 ft | 344 kts | 313° |
| 2026-05-01 10:38 | 48.99719 | 11.64674 | 22495 ft | 341 kts | 313° |
| 2026-05-01 10:38 | 49.01171 | 11.61843 | 22169 ft | 338 kts | 313° |
| 2026-05-01 10:38 | 49.02610 | 11.59035 | 21826 ft | 335 kts | 313° |
| 2026-05-01 10:38 | 49.04038 | 11.56246 | 21485 ft | 333 kts | 313° |
| 2026-05-01 10:39 | 49.05455 | 11.53475 | 21148 ft | 331 kts | 313° |
| 2026-05-01 10:39 | 49.06862 | 11.50723 | 20815 ft | 329 kts | 313° |
| 2026-05-01 10:39 | 49.08263 | 11.47977 | 20472 ft | 327 kts | 313° |
| 2026-05-01 10:39 | 49.09656 | 11.45246 | 20143 ft | 325 kts | 313° |
| 2026-05-01 10:40 | 49.11039 | 11.42532 | 19819 ft | 323 kts | 313° |
| 2026-05-01 10:40 | 49.12413 | 11.39831 | 19489 ft | 323 kts | 313° |
| 2026-05-01 10:40 | 49.13791 | 11.37122 | 19150 ft | 322 kts | 312° |
| 2026-05-01 10:40 | 49.15157 | 11.34432 | 18824 ft | 321 kts | 312° |
| 2026-05-01 10:41 | 49.16521 | 11.31742 | 18459 ft | 320 kts | 312° |
| 2026-05-01 10:41 | 49.17883 | 11.29057 | 18101 ft | 319 kts | 312° |
| 2026-05-01 10:41 | 49.20588 | 11.23711 | 17422 ft | 316 kts | 312° |
| 2026-05-01 10:42 | 49.21985 | 11.21148 | 17070 ft | 312 kts | 320° |
| 2026-05-01 10:42 | 49.23602 | 11.18951 | 16724 ft | 310 kts | 324° |
| 2026-05-01 10:42 | 49.25253 | 11.16854 | 16394 ft | 309 kts | 324° |
| 2026-05-01 10:42 | 49.26896 | 11.14734 | 16069 ft | 308 kts | 323° |
| 2026-05-01 10:43 | 49.28598 | 11.12812 | 15728 ft | 301 kts | 339° |
| 2026-05-01 10:43 | 49.30576 | 11.12010 | 15444 ft | 291 kts | 0° |
| 2026-05-01 10:43 | 49.32575 | 11.12246 | 15129 ft | 286 kts | 12° |
| 2026-05-01 10:43 | 49.34534 | 11.12718 | 14811 ft | 286 kts | 11° |
| 2026-05-01 10:44 | 49.36530 | 11.12589 | 14457 ft | 293 kts | 347° |
| 2026-05-01 10:44 | 49.38328 | 11.11083 | 14149 ft | 300 kts | 321° |
| 2026-05-01 10:44 | 49.39564 | 11.08492 | 13800 ft | 306 kts | 296° |
| 2026-05-01 10:44 | 49.40132 | 11.05332 | 13482 ft | 308 kts | 281° |
| 2026-05-01 10:45 | 49.40427 | 11.02080 | 13151 ft | 307 kts | 279° |
| 2026-05-01 10:45 | 49.40697 | 10.98829 | 12825 ft | 307 kts | 279° |
| 2026-05-01 10:45 | 49.40985 | 10.95590 | 12494 ft | 306 kts | 279° |
| 2026-05-01 10:45 | 49.41284 | 10.92357 | 12176 ft | 306 kts | 280° |
| 2026-05-01 10:46 | 49.41593 | 10.89126 | 11857 ft | 305 kts | 280° |
| 2026-05-01 10:46 | 49.41901 | 10.85934 | 11542 ft | 304 kts | 279° |
| 2026-05-01 10:46 | 49.42208 | 10.82758 | 11247 ft | 304 kts | 280° |
| 2026-05-01 10:46 | 49.42518 | 10.79526 | 10774 ft | 310 kts | 279° |
| 2026-05-01 10:47 | 49.42832 | 10.76264 | 10522 ft | 306 kts | 279° |
| 2026-05-01 10:47 | 49.43133 | 10.73104 | 10267 ft | 304 kts | 279° |
| 2026-05-01 10:47 | 49.43439 | 10.69888 | 9900 ft | 303 kts | 279° |
| 2026-05-01 10:47 | 49.43740 | 10.66709 | 9676 ft | 299 kts | 279° |
| 2026-05-01 10:48 | 49.44041 | 10.63536 | 9295 ft | 300 kts | 279° |
| 2026-05-01 10:48 | 49.44338 | 10.60389 | 9195 ft | 292 kts | 279° |
| 2026-05-01 10:48 | 49.44620 | 10.57378 | 9132 ft | 279 kts | 279° |
| 2026-05-01 10:48 | 49.44891 | 10.54514 | 9007 ft | 263 kts | 281° |
| 2026-05-01 10:49 | 49.45529 | 10.52005 | 8852 ft | 245 kts | 310° |
| 2026-05-01 10:49 | 49.46762 | 10.50394 | 8719 ft | 223 kts | 338° |
| 2026-05-01 10:49 | 49.48177 | 10.49645 | 8441 ft | 211 kts | 357° |
| 2026-05-01 10:49 | 49.49615 | 10.49632 | 8007 ft | 205 kts | 13° |
| 2026-05-01 10:50 | 49.51020 | 10.49925 | 7599 ft | 203 kts | 14° |
| 2026-05-01 10:50 | 49.52405 | 10.50241 | 7260 ft | 200 kts | 14° |
| 2026-05-01 10:50 | 49.53725 | 10.50725 | 7088 ft | 187 kts | 37° |
| 2026-05-01 10:50 | 49.54431 | 10.52214 | 7009 ft | 175 kts | 83° |
| 2026-05-01 10:51 | 49.54495 | 10.54148 | 6941 ft | 189 kts | 88° |
| 2026-05-01 10:51 | 49.54541 | 10.56184 | 6839 ft | 190 kts | 90° |
| 2026-05-01 10:51 | 49.54545 | 10.58206 | 6745 ft | 189 kts | 91° |
| 2026-05-01 10:51 | 49.54506 | 10.60206 | 6664 ft | 185 kts | 93° |
| 2026-05-01 10:52 | 49.54390 | 10.62120 | 6719 ft | 179 kts | 96° |
| 2026-05-01 10:52 | 49.54230 | 10.64085 | 6468 ft | 184 kts | 97° |
| 2026-05-01 10:52 | 49.54047 | 10.66011 | 6238 ft | 179 kts | 98° |
| 2026-05-01 10:52 | 49.53859 | 10.67881 | 6020 ft | 176 kts | 99° |
| 2026-05-01 10:53 | 49.53675 | 10.69746 | 5779 ft | 175 kts | 98° |
| 2026-05-01 10:53 | 49.53487 | 10.71598 | 5504 ft | 171 kts | 99° |
| 2026-05-01 10:53 | 49.53315 | 10.73391 | 5301 ft | 170 kts | 99° |
| 2026-05-01 10:53 | 49.53126 | 10.75199 | 5067 ft | 172 kts | 100° |
| 2026-05-01 10:54 | 49.52947 | 10.77007 | 4837 ft | 169 kts | 99° |
| 2026-05-01 10:54 | 49.52762 | 10.78815 | 4590 ft | 171 kts | 99° |
| 2026-05-01 10:54 | 49.52582 | 10.80598 | 4360 ft | 170 kts | 99° |
| 2026-05-01 10:54 | 49.52387 | 10.82401 | 4112 ft | 170 kts | 99° |
| 2026-05-01 10:55 | 49.52204 | 10.84194 | 3888 ft | 170 kts | 97° |
| 2026-05-01 10:55 | 49.52028 | 10.85964 | 3658 ft | 165 kts | 97° |
| 2026-05-01 10:55 | 49.51868 | 10.87684 | 3450 ft | 159 kts | 98° |
| 2026-05-01 10:55 | 49.51688 | 10.89291 | 3253 ft | 147 kts | 98° |
| 2026-05-01 10:56 | 49.51567 | 10.90803 | 3024 ft | 137 kts | 94° |
| 2026-05-01 10:56 | 49.51406 | 10.92177 | 2863 ft | 133 kts | 98° |
| 2026-05-01 10:56 | 49.51284 | 10.93594 | 2647 ft | 134 kts | 96° |
| 2026-05-01 10:56 | 49.51128 | 10.94970 | 2487 ft | 130 kts | 97° |
| 2026-05-01 10:57 | 49.51010 | 10.96303 | 2313 ft | 124 kts | 98° |
| 2026-05-01 10:57 | 49.50874 | 10.97631 | 2178 ft | 131 kts | 97° |
| 2026-05-01 10:57 | 49.50734 | 10.99030 | 1962 ft | 133 kts | 96° |
| 2026-05-01 10:57 | 49.50584 | 11.00417 | 1702 ft | 131 kts | 99° |
| 2026-05-01 10:58 | 49.50451 | 11.01792 | 1533 ft | 130 kts | 97° |
| 2026-05-01 10:58 | 49.50332 | 11.03152 | 1428 ft | 129 kts | 100° |
| 2026-05-01 10:58 | 49.50183 | 11.04530 | 1277 ft | 133 kts | 99° |
| 2026-05-01 10:58 | 49.50057 | 11.05964 | 1085 ft | 136 kts | 98° |
| 2026-05-01 10:59 | 49.49920 | 11.07285 | 1041 ft | 105 kts | 98° |
| 2026-05-01 10:59 | 49.49839 | 11.08116 | 1042 ft | 50 kts | 99° |
| 2026-05-01 10:59 | 49.49807 | 11.08430 | 1043 ft | 23 kts | 98° |
| 2026-05-01 10:59 | 49.49717 | 11.08560 | 1044 ft | 17 kts | 198° |
| 2026-05-01 11:00 | 49.49654 | 11.08469 | 1042 ft | 12 kts | 228° |
| 2026-05-01 11:00 | 49.49606 | 11.08383 | 1042 ft | 10 kts | 211° |
| 2026-05-01 11:00 | 49.49543 | 11.08338 | 1040 ft | 10 kts | 234° |
| 2026-05-01 11:00 | 49.49540 | 11.08227 | 1038 ft | 11 kts | 279° |
| 2026-05-01 11:01 | 49.49554 | 11.08104 | 1037 ft | 12 kts | 279° |
| 2026-05-01 11:01 | 49.49566 | 11.07983 | 1037 ft | 11 kts | 278° |
| 2026-05-01 11:01 | 49.49570 | 11.07874 | 1037 ft | 8 kts | 239° |
| 2026-05-01 11:01 | 49.49518 | 11.07858 | 1033 ft | 1 kts | 188° |
| 2026-05-01 11:02 | 49.49517 | 11.07858 | 1033 ft | 0 kts | 188° |